createdAt,value
2023-03-24T00:00:18.695Z,96325.25
2023-03-24T00:02:46.723Z,96338.03
2023-03-24T00:05:15.052Z,96345.56
2023-03-24T00:07:42.562Z,96337.28
2023-03-24T00:10:11.375Z,96352.94
2023-03-24T00:12:40.416Z,96361.91
2023-03-24T00:15:08.714Z,96364.47
2023-03-24T00:17:36.982Z,96364.00
2023-03-24T00:20:08.638Z,96365.34
2023-03-24T00:22:36.317Z,96373.72
2023-03-24T00:25:04.568Z,96369.22
2023-03-24T00:27:36.780Z,96372.97
2023-03-24T00:30:07.934Z,96370.03
2023-03-24T00:32:36.963Z,96371.38
2023-03-24T00:35:05.042Z,96361.41
2023-03-24T00:37:32.795Z,96363.31
2023-03-24T00:40:01.075Z,96354.09
2023-03-24T00:42:30.367Z,96365.19
2023-03-24T00:44:58.504Z,96366.00
2023-03-24T00:47:27.559Z,96360.91
2023-03-24T00:49:57.996Z,96362.41
2023-03-24T00:52:26.297Z,96358.59
2023-03-24T00:54:55.396Z,96363.78
2023-03-24T00:57:23.025Z,96359.59
2023-03-24T00:59:51.371Z,96359.75
2023-03-24T01:02:19.440Z,96363.88
2023-03-24T01:04:48.622Z,96347.66
2023-03-24T01:07:18.353Z,96346.19
2023-03-24T01:09:51.693Z,96342.44
2023-03-24T01:12:19.718Z,96332.91
2023-03-24T01:14:47.630Z,96334.63
2023-03-24T01:17:15.335Z,96337.84
2023-03-24T01:19:43.013Z,96323.41
2023-03-24T01:22:12.790Z,96325.38
2023-03-24T01:24:40.445Z,96332.00
2023-03-24T01:27:08.424Z,96333.03
2023-03-24T01:29:39.159Z,96320.75
2023-03-24T01:32:06.965Z,96326.13
2023-03-24T01:34:34.684Z,96323.03
2023-03-24T01:37:02.586Z,96329.53
2023-03-24T01:39:31.673Z,96319.13
2023-03-24T01:41:59.383Z,96319.41
2023-03-24T01:44:28.341Z,96314.81
2023-03-24T01:46:56.454Z,96322.31
2023-03-24T01:49:24.979Z,96298.94
2023-03-24T01:51:53.729Z,96311.78
2023-03-24T01:54:22.040Z,96304.59
2023-03-24T01:56:54.802Z,96303.81
2023-03-24T01:59:23.441Z,96304.97
2023-03-24T02:02:04.520Z,96308.88
2023-03-24T02:04:42.153Z,96292.16
2023-03-24T02:07:12.655Z,96289.28
2023-03-24T02:09:40.413Z,96287.06
2023-03-24T02:12:09.675Z,96283.41
2023-03-24T02:14:37.898Z,96289.19
2023-03-24T02:17:17.522Z,96281.91
2023-03-24T02:19:54.694Z,96285.72
2023-03-24T02:22:44.057Z,96289.88
2023-03-24T02:25:32.987Z,96282.47
2023-03-24T02:28:05.543Z,96287.94
2023-03-24T02:30:44.923Z,96295.44
2023-03-24T02:33:36.522Z,96287.03
2023-03-24T02:36:19.174Z,96286.63
2023-03-24T02:39:01.857Z,96272.50
2023-03-24T02:41:31.123Z,96264.38
2023-03-24T02:44:00.011Z,96270.13
2023-03-24T02:46:28.682Z,96258.91
2023-03-24T02:49:00.098Z,96245.38
2023-03-24T02:51:28.491Z,96243.53
2023-03-24T02:53:57.481Z,96229.00
2023-03-24T02:56:30.179Z,96213.03
2023-03-24T02:59:08.449Z,96204.56
2023-03-24T03:01:41.401Z,96200.47
2023-03-24T03:04:46.612Z,96193.88
2023-03-24T03:07:16.711Z,96185.94
2023-03-24T03:09:45.483Z,96183.50
2023-03-24T03:12:13.164Z,96183.72
2023-03-24T03:14:43.154Z,96176.25
2023-03-24T03:17:11.924Z,96168.69
2023-03-24T03:19:40.066Z,96175.16
2023-03-24T03:22:08.194Z,96181.22
2023-03-24T03:24:37.374Z,96180.50
2023-03-24T03:27:06.076Z,96174.19
2023-03-24T03:29:35.198Z,96172.44
2023-03-24T03:32:07.859Z,96160.56
2023-03-24T03:34:37.659Z,96149.06
2023-03-24T03:37:06.021Z,96145.94
2023-03-24T03:39:34.197Z,96133.47
2023-03-24T03:42:06.550Z,96130.69
2023-03-24T03:44:34.409Z,96115.69
2023-03-24T03:47:02.093Z,96111.00
2023-03-24T03:49:42.045Z,96101.78
2023-03-24T03:52:09.700Z,96096.13
2023-03-24T03:54:37.545Z,96093.94
2023-03-24T03:57:05.343Z,96087.38
2023-03-24T03:59:40.050Z,96092.91
2023-03-24T04:02:16.969Z,96085.81
2023-03-24T04:05:05.897Z,96091.16
2023-03-24T04:07:46.735Z,96081.63
2023-03-24T04:10:31.485Z,96080.53
2023-03-24T04:13:05.946Z,96073.06
2023-03-24T04:15:54.436Z,96065.25
2023-03-24T04:18:50.553Z,96062.25
2023-03-24T04:21:28.511Z,96059.13
2023-03-24T04:23:58.682Z,96052.09
2023-03-24T04:26:28.512Z,96048.78
2023-03-24T04:29:04.342Z,96041.13
2023-03-24T04:31:34.250Z,96045.56
2023-03-24T04:34:03.762Z,96051.41
2023-03-24T04:36:42.435Z,96050.75
2023-03-24T04:39:35.564Z,96052.78
2023-03-24T04:42:07.536Z,96051.06
2023-03-24T04:44:35.361Z,96049.97
2023-03-24T04:47:28.003Z,96037.91
2023-03-24T04:50:14.771Z,96041.16
2023-03-24T04:52:44.155Z,96041.53
2023-03-24T04:55:33.305Z,96041.63
2023-03-24T04:58:01.184Z,96036.13
2023-03-24T05:00:29.109Z,96040.06
2023-03-24T05:02:57.092Z,96030.53
2023-03-24T05:05:29.012Z,96035.59
2023-03-24T05:07:58.429Z,96038.88
2023-03-24T05:10:26.277Z,96030.13
2023-03-24T05:12:56.856Z,96048.66
2023-03-24T05:15:27.366Z,96045.50
2023-03-24T05:18:07.084Z,96039.63
2023-03-24T05:20:34.967Z,96045.41
2023-03-24T05:23:15.760Z,96046.75
2023-03-24T05:25:46.804Z,96049.53
2023-03-24T05:28:16.172Z,96044.03
2023-03-24T05:30:44.608Z,96075.03
2023-03-24T05:33:24.376Z,96048.16
2023-03-24T05:35:52.615Z,96058.63
2023-03-24T05:38:21.964Z,96054.72
2023-03-24T05:40:57.040Z,96070.69
2023-03-24T05:43:26.086Z,96062.19
2023-03-24T05:46:09.367Z,96057.00
2023-03-24T05:48:37.549Z,96073.78
2023-03-24T05:51:19.518Z,96073.56
2023-03-24T05:53:54.764Z,96072.03
2023-03-24T05:56:28.584Z,96075.50
2023-03-24T05:59:15.565Z,96069.41
2023-03-24T06:02:01.877Z,96072.94
2023-03-24T06:04:46.708Z,96063.06
2023-03-24T06:07:17.572Z,96080.75
2023-03-24T06:09:51.108Z,96078.09
2023-03-24T06:12:21.696Z,96068.91
2023-03-24T06:15:09.150Z,96078.38
2023-03-24T06:17:38.234Z,96067.53
2023-03-24T06:20:16.092Z,96080.06
2023-03-24T06:23:16.763Z,96080.19
2023-03-24T06:26:09.558Z,96062.09
2023-03-24T06:28:43.280Z,96071.19
2023-03-24T06:31:18.624Z,96081.00
2023-03-24T06:33:46.997Z,96077.75
2023-03-24T06:36:15.768Z,96069.94
2023-03-24T06:38:45.586Z,96068.13
2023-03-24T06:41:19.423Z,96061.69
2023-03-24T06:43:50.016Z,96069.59
2023-03-24T06:46:18.084Z,96065.28
2023-03-24T06:48:49.298Z,96077.94
2023-03-24T06:51:17.544Z,96082.44
2023-03-24T06:53:46.947Z,96089.78
2023-03-24T06:56:17.248Z,96081.25
2023-03-24T06:58:51.769Z,96096.78
2023-03-24T07:01:39.953Z,96090.75
2023-03-24T07:04:28.294Z,96096.50
2023-03-24T07:07:19.726Z,96119.28
2023-03-24T07:09:55.080Z,96121.47
2023-03-24T07:12:23.180Z,96128.88
2023-03-24T07:14:52.483Z,96132.09
2023-03-24T07:17:20.508Z,96138.00
2023-03-24T07:20:14.315Z,96134.16
2023-03-24T07:22:42.200Z,96151.47
2023-03-24T07:25:31.687Z,96137.72
2023-03-24T07:28:15.108Z,96133.97
2023-03-24T07:30:44.361Z,96132.22
2023-03-24T07:33:13.631Z,96148.75
2023-03-24T07:35:45.146Z,96149.44
2023-03-24T07:38:13.385Z,96139.75
2023-03-24T07:40:41.453Z,96134.47
2023-03-24T07:43:09.575Z,96135.03
2023-03-24T07:45:56.312Z,96142.19
2023-03-24T07:48:28.019Z,96150.09
2023-03-24T07:50:56.193Z,96146.75
2023-03-24T07:53:45.831Z,96146.41
2023-03-24T07:56:16.137Z,96137.56
2023-03-24T07:58:52.889Z,96126.28
2023-03-24T08:01:31.956Z,96132.75
2023-03-24T08:04:03.399Z,96134.91
2023-03-24T08:06:54.856Z,96114.78
2023-03-24T08:09:24.231Z,96105.44
2023-03-24T08:11:52.019Z,96102.09
2023-03-24T08:14:19.795Z,96102.09
2023-03-24T08:16:48.914Z,96095.06
2023-03-24T08:19:16.657Z,96097.50
2023-03-24T08:21:44.486Z,96084.84
2023-03-24T08:24:12.206Z,96081.50
2023-03-24T08:26:40.291Z,96076.56
2023-03-24T08:29:08.004Z,96064.34
2023-03-24T08:31:36.047Z,96084.63
2023-03-24T08:34:06.576Z,96079.78
2023-03-24T08:36:34.449Z,96090.84
2023-03-24T08:39:02.178Z,96074.28
2023-03-24T08:41:35.077Z,96063.63
2023-03-24T08:44:06.883Z,96048.03
2023-03-24T08:46:35.256Z,96032.84
2023-03-24T08:49:02.964Z,96023.19
2023-03-24T08:51:32.226Z,96023.63
2023-03-24T08:54:01.634Z,96016.75
2023-03-24T08:56:29.355Z,96022.03
2023-03-24T08:58:58.025Z,96023.03
2023-03-24T09:01:25.782Z,96022.03
2023-03-24T09:03:53.698Z,96023.56
2023-03-24T09:06:21.508Z,96038.97
2023-03-24T09:08:50.619Z,96026.53
2023-03-24T09:11:18.907Z,96020.22
2023-03-24T09:13:47.583Z,96026.00
2023-03-24T09:16:15.198Z,96017.28
2023-03-24T09:18:42.999Z,96009.69
2023-03-24T09:21:10.597Z,96021.28
2023-03-24T09:23:38.203Z,96022.59
2023-03-24T09:26:07.604Z,96026.00
2023-03-24T09:28:35.384Z,96036.38
2023-03-24T09:31:03.346Z,96045.94
2023-03-24T09:33:31.748Z,96066.41
2023-03-24T09:36:00.392Z,96081.50
2023-03-24T09:38:28.368Z,96092.22
2023-03-24T09:40:57.874Z,96085.34
2023-03-24T09:43:28.430Z,96068.75
2023-03-24T09:45:57.120Z,96069.81
2023-03-24T09:48:27.155Z,96078.63
2023-03-24T09:50:55.191Z,96071.78
2023-03-24T09:53:26.122Z,96083.63
2023-03-24T09:55:53.784Z,96075.28
2023-03-24T09:58:21.546Z,96079.13
2023-03-24T10:00:50.861Z,96102.72
2023-03-24T10:03:21.153Z,96099.84
2023-03-24T10:05:50.389Z,96091.97
2023-03-24T10:08:18.592Z,96094.06
2023-03-24T10:10:49.690Z,96106.47
2023-03-24T10:13:19.728Z,96110.63
2023-03-24T10:15:48.445Z,96112.13
2023-03-24T10:18:22.070Z,96105.00
2023-03-24T10:20:51.580Z,96102.16
2023-03-24T10:23:22.905Z,96101.44
2023-03-24T10:25:51.890Z,96108.03
2023-03-24T10:28:20.819Z,96104.94
2023-03-24T10:30:49.498Z,96097.38
2023-03-24T10:33:17.865Z,96086.78
2023-03-24T10:35:51.677Z,96094.63
2023-03-24T10:38:19.752Z,96099.91
2023-03-24T10:40:47.635Z,96104.09
2023-03-24T10:43:15.399Z,96107.06
2023-03-24T10:45:44.754Z,96108.78
2023-03-24T10:48:12.817Z,96116.78
2023-03-24T10:50:42.192Z,96108.81
2023-03-24T10:53:13.385Z,96103.34
2023-03-24T10:55:43.449Z,96101.41
2023-03-24T10:58:14.095Z,96089.22
2023-03-24T11:00:42.804Z,96090.72
2023-03-24T11:03:13.033Z,96097.91
2023-03-24T11:05:40.719Z,96082.91
2023-03-24T11:11:02.194Z,96106.41
2023-03-24T11:13:30.668Z,96097.69
2023-03-24T11:15:59.201Z,96091.72
2023-03-24T11:18:27.088Z,96092.88
2023-03-24T11:20:54.998Z,96092.31
2023-03-24T11:23:26.651Z,96081.16
2023-03-24T11:25:54.619Z,96072.38
2023-03-24T11:28:25.406Z,96083.47
2023-03-24T11:30:53.406Z,96058.31
2023-03-24T11:33:34.852Z,96044.03
2023-03-24T11:36:07.610Z,96032.97
2023-03-24T11:38:36.352Z,96040.72
2023-03-24T11:41:04.988Z,96017.22
2023-03-24T11:43:33.963Z,96018.34
2023-03-24T11:46:01.896Z,96013.09
2023-03-24T11:48:31.358Z,96008.31
2023-03-24T11:50:58.935Z,96002.47
2023-03-24T11:53:26.802Z,96005.03
2023-03-24T11:55:55.692Z,95997.25
2023-03-24T11:58:28.006Z,95999.06
2023-03-24T12:00:58.908Z,95988.47
2023-03-24T12:03:33.112Z,95986.06
2023-03-24T12:06:03.157Z,95985.16
2023-03-24T12:08:32.786Z,95989.41
2023-03-24T12:11:03.973Z,95982.50
2023-03-24T12:13:33.732Z,95973.53
2023-03-24T12:16:05.040Z,95963.59
2023-03-24T12:18:44.260Z,95968.75
2023-03-24T12:21:14.079Z,95966.66
2023-03-24T12:23:43.640Z,95964.94
2023-03-24T12:26:18.628Z,95960.47
2023-03-24T12:28:51.394Z,95952.16
2023-03-24T12:31:27.166Z,95954.38
2023-03-24T12:33:55.889Z,95958.50
2023-03-24T12:36:31.833Z,95966.38
2023-03-24T12:39:05.470Z,95960.38
2023-03-24T12:41:39.118Z,95961.09
2023-03-24T12:44:11.062Z,95955.22
2023-03-24T12:46:47.315Z,95960.59
2023-03-24T12:49:40.021Z,95945.19
2023-03-24T12:52:15.309Z,95953.13
2023-03-24T12:54:46.014Z,95946.00
2023-03-24T12:57:14.104Z,95944.81
2023-03-24T12:59:42.353Z,95957.00
2023-03-24T13:02:13.432Z,95973.03
2023-03-24T13:04:42.251Z,95987.16
2023-03-24T13:07:28.846Z,96006.13
2023-03-24T13:09:56.693Z,96003.88
2023-03-24T13:12:24.621Z,96012.09
2023-03-24T13:14:54.297Z,95999.59
2023-03-24T13:17:25.315Z,95992.97
2023-03-24T13:19:52.870Z,96008.88
2023-03-24T13:22:21.347Z,96107.16
2023-03-24T13:24:48.921Z,96091.78
2023-03-24T13:27:17.426Z,96035.28
2023-03-24T13:29:51.756Z,95985.16
2023-03-24T13:32:25.062Z,95961.34
2023-03-24T13:34:54.278Z,95908.41
2023-03-24T13:37:22.780Z,95864.88
2023-03-24T13:39:51.499Z,95854.75
2023-03-24T13:42:28.311Z,95834.41
2023-03-24T13:44:55.906Z,95826.13
2023-03-24T13:47:26.006Z,95822.47
2023-03-24T13:49:54.970Z,95829.72
2023-03-24T13:52:24.017Z,95824.09
2023-03-24T13:54:51.551Z,95841.63
2023-03-24T13:57:20.537Z,95846.56
2023-03-24T13:59:59.701Z,95843.25
2023-03-24T14:02:46.976Z,95840.75
2023-03-24T14:05:30.003Z,95841.34
2023-03-24T14:08:11.685Z,95832.75
2023-03-24T14:10:40.414Z,95832.56
2023-03-24T14:13:19.655Z,95840.53
2023-03-24T14:15:47.452Z,95846.53
2023-03-24T14:18:17.162Z,95855.06
2023-03-24T14:20:45.780Z,95854.13
2023-03-24T14:23:21.765Z,95871.53
2023-03-24T14:25:54.397Z,95885.09
2023-03-24T14:28:22.647Z,95881.97
2023-03-24T14:30:58.633Z,95881.03
2023-03-24T14:33:27.644Z,95889.81
2023-03-24T14:35:58.185Z,95895.97
2023-03-24T14:38:26.094Z,95893.84
2023-03-24T14:40:54.052Z,95890.69
2023-03-24T14:43:23.943Z,95895.66
2023-03-24T14:45:55.437Z,95892.59
2023-03-24T14:48:24.569Z,95893.34
2023-03-24T14:50:53.903Z,95883.16
2023-03-24T14:53:22.023Z,95886.53
2023-03-24T14:55:49.831Z,95897.44
2023-03-24T14:58:20.311Z,95897.00
2023-03-24T15:00:57.952Z,95891.72
2023-03-24T15:03:38.140Z,95906.22
2023-03-24T15:06:14.197Z,95915.13
2023-03-24T15:08:45.050Z,95919.16
2023-03-24T15:11:15.453Z,95917.47
2023-03-24T15:13:43.780Z,95919.84
2023-03-24T15:16:17.914Z,95912.81
2023-03-24T15:18:58.124Z,95910.06
2023-03-24T15:21:30.479Z,95905.47
2023-03-24T15:23:58.184Z,95891.72
2023-03-24T15:26:25.924Z,95900.03
2023-03-24T15:28:59.915Z,95889.22
2023-03-24T15:31:30.475Z,95892.16
2023-03-24T15:34:05.046Z,95892.66
2023-03-24T15:36:36.057Z,95887.59
2023-03-24T15:39:05.065Z,95886.97
2023-03-24T15:41:32.563Z,95890.84
2023-03-24T15:44:00.289Z,95894.25
2023-03-24T15:46:28.200Z,95892.06
2023-03-24T15:48:55.811Z,95883.66
2023-03-24T15:51:38.208Z,95897.56
2023-03-24T15:54:16.908Z,95891.25
2023-03-24T15:56:44.539Z,95896.41
2023-03-24T15:59:15.210Z,95904.50
2023-03-24T16:01:45.146Z,95913.06
2023-03-24T16:04:14.399Z,95919.09
2023-03-24T16:06:42.734Z,95938.13
2023-03-24T16:09:13.701Z,95939.19
2023-03-24T16:11:41.604Z,95952.03
2023-03-24T16:14:14.474Z,95952.31
2023-03-24T16:16:44.180Z,95950.19
2023-03-24T16:19:11.851Z,95970.75
2023-03-24T16:21:39.366Z,95982.19
2023-03-24T16:24:07.405Z,95985.41
2023-03-24T16:26:36.347Z,95994.50
2023-03-24T16:29:06.264Z,95992.16
2023-03-24T16:31:35.546Z,95997.88
2023-03-24T16:34:03.091Z,96016.16
2023-03-24T16:36:30.605Z,96021.88
2023-03-24T16:38:58.577Z,96025.34
2023-03-24T16:41:26.107Z,96034.25
2023-03-24T16:43:54.976Z,96050.56
2023-03-24T16:46:23.535Z,96058.44
2023-03-24T16:48:51.192Z,96081.53
2023-03-24T16:51:18.774Z,96076.03
2023-03-24T16:53:46.586Z,96080.69
2023-03-24T16:56:14.720Z,96086.81
2023-03-24T16:58:42.382Z,96080.38
2023-03-24T17:01:17.615Z,96079.13
2023-03-24T17:03:50.401Z,96074.09
2023-03-24T17:06:18.118Z,96086.41
2023-03-24T17:08:54.128Z,96085.69
2023-03-24T17:11:24.592Z,96086.06
2023-03-24T17:13:53.859Z,96100.06
2023-03-24T17:16:22.909Z,96106.44
2023-03-24T17:18:50.500Z,96097.09
2023-03-24T17:21:18.696Z,96108.09
2023-03-24T17:23:46.889Z,96103.38
2023-03-24T17:26:14.498Z,96113.22
2023-03-24T17:28:42.067Z,96118.81
2023-03-24T17:31:10.004Z,96127.94
2023-03-24T17:33:39.002Z,96142.06
2023-03-24T17:36:07.319Z,96151.84
2023-03-24T17:38:34.854Z,96156.50
2023-03-24T17:41:02.977Z,96149.59
2023-03-24T17:43:30.494Z,96141.31
2023-03-24T17:45:59.002Z,96154.09
2023-03-24T17:48:26.547Z,96162.78
2023-03-24T17:50:56.104Z,96160.75
2023-03-24T17:53:25.766Z,96153.66
2023-03-24T17:55:56.238Z,96162.97
2023-03-24T17:58:24.028Z,96165.56
2023-03-24T18:00:52.005Z,96159.16
2023-03-24T18:03:19.972Z,96160.41
2023-03-24T18:05:47.549Z,96156.97
2023-03-24T18:08:16.728Z,96151.31
2023-03-24T18:10:44.524Z,96140.13
2023-03-24T18:13:12.093Z,96142.13
2023-03-24T18:15:41.582Z,96146.56
2023-03-24T18:18:09.197Z,96132.44
2023-03-24T18:20:39.248Z,96144.88
2023-03-24T18:23:07.457Z,96129.25
2023-03-24T18:25:36.377Z,96129.13
2023-03-24T18:28:03.943Z,96124.63
2023-03-24T18:30:32.250Z,96123.22
2023-03-24T18:33:01.451Z,96119.69
2023-03-24T18:35:29.399Z,96129.47
2023-03-24T18:37:57.200Z,96141.44
2023-03-24T18:40:24.959Z,96133.78
2023-03-24T18:42:54.015Z,96133.38
2023-03-24T18:45:21.942Z,96131.94
2023-03-24T18:47:49.638Z,96138.63
2023-03-24T18:50:17.679Z,96122.84
2023-03-24T18:52:45.983Z,96132.56
2023-03-24T18:55:15.724Z,96128.94
2023-03-24T18:57:43.362Z,96128.72
2023-03-24T19:00:13.079Z,96130.16
2023-03-24T19:02:40.866Z,96127.13
2023-03-24T19:05:10.018Z,96126.53
2023-03-24T19:07:37.550Z,96124.09
2023-03-24T19:10:05.441Z,96111.53
2023-03-24T19:12:33.227Z,96126.69
2023-03-24T19:15:01.660Z,96121.22
2023-03-24T19:17:30.595Z,96124.28
2023-03-24T19:19:58.620Z,96127.47
2023-03-24T19:22:26.887Z,96142.31
2023-03-24T19:24:54.447Z,96130.50
2023-03-24T19:27:23.122Z,96136.56
2023-03-24T19:29:50.745Z,96139.44
2023-03-24T19:32:18.436Z,96137.00
2023-03-24T19:34:48.119Z,96148.16
2023-03-24T19:37:15.811Z,96137.03
2023-03-24T19:39:43.477Z,96142.31
2023-03-24T19:42:11.120Z,96146.75
2023-03-24T19:44:38.766Z,96141.69
2023-03-24T19:47:06.529Z,96141.47
2023-03-24T19:49:34.099Z,96141.88
2023-03-24T19:52:03.915Z,96143.31
2023-03-24T19:54:34.145Z,96149.19
2023-03-24T19:57:01.809Z,96136.63
2023-03-24T19:59:29.462Z,96142.28
2023-03-24T20:01:57.442Z,96139.84
2023-03-24T20:04:25.104Z,96145.94
2023-03-24T20:06:52.607Z,96138.25
2023-03-24T20:09:21.650Z,96140.69
2023-03-24T20:11:49.249Z,96127.72
2023-03-24T20:14:18.540Z,96118.84
2023-03-24T20:16:46.189Z,96115.81
2023-03-24T20:19:13.894Z,96107.38
2023-03-24T20:21:41.630Z,96105.94
2023-03-24T20:24:09.409Z,96095.00
2023-03-24T20:26:38.481Z,96107.16
2023-03-24T20:29:06.174Z,96102.72
2023-03-24T20:31:33.848Z,96103.09
2023-03-24T20:34:01.710Z,96103.09
2023-03-24T20:36:29.300Z,96093.00
2023-03-24T20:38:59.548Z,96099.88
2023-03-24T20:41:27.183Z,96101.91
2023-03-24T20:43:56.350Z,96098.28
2023-03-24T20:46:24.001Z,96087.78
2023-03-24T20:49:21.088Z,96090.78
2023-03-24T20:51:48.633Z,96093.00
2023-03-24T20:54:16.211Z,96092.59
2023-03-24T20:56:43.753Z,96097.84
2023-03-24T20:59:13.828Z,96099.88
2023-03-24T21:01:42.267Z,96102.72
2023-03-24T21:04:10.496Z,96104.94
2023-03-24T21:06:38.800Z,96098.25
2023-03-24T21:09:06.376Z,96090.16
2023-03-24T21:11:33.880Z,96096.81
2023-03-24T21:14:02.656Z,96103.09
2023-03-24T21:16:34.003Z,96101.84
2023-03-24T21:19:03.779Z,96113.59
2023-03-24T21:21:31.938Z,96113.19
2023-03-24T21:24:00.572Z,96109.38
2023-03-24T21:26:28.427Z,96107.94
2023-03-24T21:28:55.977Z,96099.47
2023-03-24T21:31:24.504Z,96098.88
2023-03-24T21:33:53.563Z,96102.09
2023-03-24T21:36:21.468Z,96107.97
2023-03-24T21:38:49.775Z,96106.75
2023-03-24T21:41:17.492Z,96103.50
2023-03-24T21:43:46.923Z,96110.78
2023-03-24T21:46:20.614Z,96101.91
2023-03-24T21:48:51.180Z,96107.16
2023-03-24T21:51:21.173Z,96111.19
2023-03-24T21:53:48.722Z,96089.78
2023-03-24T21:56:16.261Z,96106.75
2023-03-24T21:58:43.884Z,96105.13
2023-03-24T22:01:11.719Z,96097.84
2023-03-24T22:03:39.491Z,96106.72
2023-03-24T22:06:10.545Z,96117.66
2023-03-24T22:08:43.439Z,96122.28
2023-03-24T22:11:11.403Z,96117.06
2023-03-24T22:13:39.563Z,96121.69
2023-03-24T22:16:07.659Z,96118.25
2023-03-24T22:18:35.413Z,96120.28
2023-03-24T22:21:04.250Z,96105.34
2023-03-24T22:23:33.298Z,96107.16
2023-03-24T22:26:03.994Z,96114.00
2023-03-24T22:28:31.495Z,96109.34
2023-03-24T22:31:02.308Z,96114.03
2023-03-24T22:33:30.119Z,96112.59
2023-03-24T22:35:58.125Z,96118.06
2023-03-24T22:38:25.740Z,96112.41
2023-03-24T22:40:56.334Z,96115.63
2023-03-24T22:43:25.288Z,96121.69
2023-03-24T22:45:52.813Z,96112.00
2023-03-24T22:48:20.580Z,96112.78
2023-03-24T22:50:48.130Z,96117.25
2023-03-24T22:53:15.636Z,96118.25
2023-03-24T22:55:44.741Z,96129.38
2023-03-24T22:58:13.064Z,96116.22
2023-03-24T23:00:42.125Z,96125.53
2023-03-24T23:03:09.970Z,96133.81
2023-03-24T23:05:40.073Z,96141.50
2023-03-24T23:08:07.886Z,96135.84
2023-03-24T23:10:35.429Z,96138.47
2023-03-24T23:13:04.207Z,96133.59
2023-03-24T23:15:32.178Z,96147.16
2023-03-24T23:18:01.091Z,96139.47
2023-03-24T23:20:29.799Z,96135.84
2023-03-24T23:22:57.365Z,96141.47
2023-03-24T23:25:25.977Z,96151.81
2023-03-24T23:27:53.491Z,96150.78
2023-03-24T23:30:21.434Z,96154.84
2023-03-24T23:32:49.575Z,96147.94
2023-03-24T23:35:18.582Z,96142.28
2023-03-24T23:37:46.565Z,96159.84
2023-03-24T23:40:15.122Z,96166.50
2023-03-24T23:42:43.164Z,96176.44
2023-03-24T23:45:14.666Z,96174.19
2023-03-24T23:47:42.707Z,96185.50
2023-03-24T23:50:10.658Z,96187.56
2023-03-24T23:52:41.262Z,96189.19
2023-03-24T23:55:10.286Z,96189.19
2023-03-24T23:57:38.323Z,96182.31
